sensor_id;sensor_type;location;lat;lon;timestamp;P1;durP1;ratioP1;P2;durP2;ratioP2
12776;SDS011;6452;41.572;23.732;2022-07-09T00:00:00;5.30;;;4.50;;
12776;SDS011;6452;41.572;23.732;2022-07-09T00:02:27;4.80;;;4.40;;
12776;SDS011;6452;41.572;23.732;2022-07-09T00:04:53;4.80;;;3.70;;
12776;SDS011;6452;41.572;23.732;2022-07-09T00:07:19;4.30;;;4.00;;
12776;SDS011;6452;41.572;23.732;2022-07-09T00:09:49;4.47;;;4.20;;
12776;SDS011;6452;41.572;23.732;2022-07-09T00:12:16;4.40;;;4.13;;
12776;SDS011;6452;41.572;23.732;2022-07-09T00:14:42;4.57;;;4.28;;
12776;SDS011;6452;41.572;23.732;2022-07-09T00:17:08;4.78;;;4.47;;
12776;SDS011;6452;41.572;23.732;2022-07-09T00:19:34;4.68;;;4.38;;
12776;SDS011;6452;41.572;23.732;2022-07-09T00:22:00;4.45;;;4.15;;
12776;SDS011;6452;41.572;23.732;2022-07-09T00:24:26;5.03;;;4.72;;
12776;SDS011;6452;41.572;23.732;2022-07-09T00:26:58;5.50;;;5.20;;
12776;SDS011;6452;41.572;23.732;2022-07-09T00:29:24;5.25;;;4.65;;
12776;SDS011;6452;41.572;23.732;2022-07-09T00:31:50;5.28;;;4.97;;
12776;SDS011;6452;41.572;23.732;2022-07-09T00:34:20;6.05;;;5.45;;
12776;SDS011;6452;41.572;23.732;2022-07-09T00:36:46;6.07;;;5.53;;
12776;SDS011;6452;41.572;23.732;2022-07-09T00:39:12;5.53;;;5.13;;
12776;SDS011;6452;41.572;23.732;2022-07-09T00:41:38;5.60;;;5.10;;
12776;SDS011;6452;41.572;23.732;2022-07-09T00:44:04;5.60;;;5.30;;
12776;SDS011;6452;41.572;23.732;2022-07-09T00:46:30;5.70;;;5.30;;
12776;SDS011;6452;41.572;23.732;2022-07-09T00:48:56;5.68;;;5.20;;
12776;SDS011;6452;41.572;23.732;2022-07-09T00:51:22;6.15;;;5.65;;
12776;SDS011;6452;41.572;23.732;2022-07-09T00:53:49;5.67;;;5.37;;
12776;SDS011;6452;41.572;23.732;2022-07-09T00:56:15;5.97;;;5.57;;
12776;SDS011;6452;41.572;23.732;2022-07-09T00:58:41;5.87;;;5.40;;
12776;SDS011;6452;41.572;23.732;2022-07-09T01:01:07;5.80;;;5.30;;
12776;SDS011;6452;41.572;23.732;2022-07-09T01:03:33;5.60;;;5.20;;
12776;SDS011;6452;41.572;23.732;2022-07-09T01:06:00;5.97;;;5.30;;
12776;SDS011;6452;41.572;23.732;2022-07-09T01:08:26;4.90;;;4.60;;
12776;SDS011;6452;41.572;23.732;2022-07-09T01:10:52;5.32;;;4.85;;
12776;SDS011;6452;41.572;23.732;2022-07-09T01:13:19;4.90;;;4.70;;
12776;SDS011;6452;41.572;23.732;2022-07-09T01:15:45;5.65;;;5.25;;
12776;SDS011;6452;41.572;23.732;2022-07-09T01:18:11;6.13;;;5.55;;
12776;SDS011;6452;41.572;23.732;2022-07-09T01:20:38;6.40;;;5.65;;
12776;SDS011;6452;41.572;23.732;2022-07-09T01:23:03;6.30;;;5.70;;
12776;SDS011;6452;41.572;23.732;2022-07-09T01:25:42;5.80;;;5.40;;
12776;SDS011;6452;41.572;23.732;2022-07-09T01:28:11;5.95;;;5.32;;
12776;SDS011;6452;41.572;23.732;2022-07-09T01:30:38;6.00;;;5.50;;
12776;SDS011;6452;41.572;23.732;2022-07-09T01:33:05;6.38;;;5.88;;
12776;SDS011;6452;41.572;23.732;2022-07-09T01:35:31;6.30;;;5.90;;
12776;SDS011;6452;41.572;23.732;2022-07-09T01:37:56;5.72;;;5.40;;
12776;SDS011;6452;41.572;23.732;2022-07-09T01:40:23;5.50;;;5.10;;
12776;SDS011;6452;41.572;23.732;2022-07-09T01:42:49;6.00;;;5.40;;
12776;SDS011;6452;41.572;23.732;2022-07-09T01:45:15;5.13;;;4.80;;
12776;SDS011;6452;41.572;23.732;2022-07-09T01:47:42;5.50;;;5.03;;
12776;SDS011;6452;41.572;23.732;2022-07-09T01:50:08;18.20;;;16.15;;
12776;SDS011;6452;41.572;23.732;2022-07-09T01:52:34;15.23;;;12.93;;
12776;SDS011;6452;41.572;23.732;2022-07-09T01:55:00;26.05;;;23.35;;
12776;SDS011;6452;41.572;23.732;2022-07-09T01:57:26;22.80;;;20.15;;
12776;SDS011;6452;41.572;23.732;2022-07-09T01:59:53;14.25;;;12.75;;
12776;SDS011;6452;41.572;23.732;2022-07-09T02:02:19;6.50;;;6.00;;
12776;SDS011;6452;41.572;23.732;2022-07-09T02:04:46;5.80;;;5.38;;
12776;SDS011;6452;41.572;23.732;2022-07-09T02:07:14;5.63;;;5.32;;
12776;SDS011;6452;41.572;23.732;2022-07-09T02:09:40;4.90;;;4.60;;
12776;SDS011;6452;41.572;23.732;2022-07-09T02:12:06;5.30;;;5.00;;
12776;SDS011;6452;41.572;23.732;2022-07-09T02:14:32;4.50;;;4.20;;
12776;SDS011;6452;41.572;23.732;2022-07-09T02:16:59;5.03;;;4.63;;
12776;SDS011;6452;41.572;23.732;2022-07-09T02:19:25;6.60;;;4.57;;
12776;SDS011;6452;41.572;23.732;2022-07-09T02:21:50;4.93;;;4.63;;
12776;SDS011;6452;41.572;23.732;2022-07-09T02:24:17;5.13;;;4.68;;
12776;SDS011;6452;41.572;23.732;2022-07-09T02:26:43;4.93;;;4.63;;
12776;SDS011;6452;41.572;23.732;2022-07-09T02:29:08;5.10;;;4.80;;
12776;SDS011;6452;41.572;23.732;2022-07-09T02:31:34;5.07;;;4.78;;
12776;SDS011;6452;41.572;23.732;2022-07-09T02:34:00;5.53;;;5.03;;
12776;SDS011;6452;41.572;23.732;2022-07-09T02:36:26;5.47;;;5.10;;
12776;SDS011;6452;41.572;23.732;2022-07-09T02:38:53;5.65;;;5.28;;
12776;SDS011;6452;41.572;23.732;2022-07-09T02:41:18;5.70;;;5.25;;
12776;SDS011;6452;41.572;23.732;2022-07-09T02:43:44;5.90;;;5.22;;
12776;SDS011;6452;41.572;23.732;2022-07-09T02:46:11;5.60;;;5.22;;
12776;SDS011;6452;41.572;23.732;2022-07-09T02:48:37;5.75;;;5.32;;
12776;SDS011;6452;41.572;23.732;2022-07-09T02:51:03;5.95;;;5.18;;
12776;SDS011;6452;41.572;23.732;2022-07-09T02:53:29;6.15;;;5.05;;
12776;SDS011;6452;41.572;23.732;2022-07-09T02:55:59;5.10;;;4.70;;
12776;SDS011;6452;41.572;23.732;2022-07-09T02:58:25;5.30;;;4.97;;
12776;SDS011;6452;41.572;23.732;2022-07-09T03:00:50;4.97;;;4.68;;
12776;SDS011;6452;41.572;23.732;2022-07-09T03:03:16;9.60;;;4.90;;
12776;SDS011;6452;41.572;23.732;2022-07-09T03:05:43;5.32;;;4.82;;
12776;SDS011;6452;41.572;23.732;2022-07-09T03:08:09;5.22;;;4.85;;
12776;SDS011;6452;41.572;23.732;2022-07-09T03:10:35;4.80;;;4.40;;
12776;SDS011;6452;41.572;23.732;2022-07-09T03:13:00;4.53;;;4.30;;
12776;SDS011;6452;41.572;23.732;2022-07-09T03:15:27;4.43;;;4.13;;
12776;SDS011;6452;41.572;23.732;2022-07-09T03:17:53;4.88;;;4.57;;
12776;SDS011;6452;41.572;23.732;2022-07-09T03:20:18;4.78;;;4.45;;
12776;SDS011;6452;41.572;23.732;2022-07-09T03:22:44;4.60;;;4.40;;
12776;SDS011;6452;41.572;23.732;2022-07-09T03:25:10;4.60;;;4.20;;
12776;SDS011;6452;41.572;23.732;2022-07-09T03:27:36;4.30;;;4.10;;
12776;SDS011;6452;41.572;23.732;2022-07-09T03:30:06;4.75;;;4.45;;
12776;SDS011;6452;41.572;23.732;2022-07-09T03:32:33;4.80;;;4.40;;
12776;SDS011;6452;41.572;23.732;2022-07-09T03:34:59;4.85;;;4.50;;
12776;SDS011;6452;41.572;23.732;2022-07-09T03:37:25;4.30;;;4.00;;
12776;SDS011;6452;41.572;23.732;2022-07-09T03:39:51;4.53;;;4.15;;
12776;SDS011;6452;41.572;23.732;2022-07-09T03:42:17;4.25;;;3.97;;
12776;SDS011;6452;41.572;23.732;2022-07-09T03:44:43;4.32;;;4.03;;
12776;SDS011;6452;41.572;23.732;2022-07-09T03:47:09;4.55;;;4.18;;
12776;SDS011;6452;41.572;23.732;2022-07-09T03:49:35;4.37;;;4.07;;
12776;SDS011;6452;41.572;23.732;2022-07-09T03:52:01;4.90;;;4.32;;
12776;SDS011;6452;41.572;23.732;2022-07-09T03:54:28;4.15;;;3.75;;
12776;SDS011;6452;41.572;23.732;2022-07-09T03:56:54;4.38;;;4.18;;
12776;SDS011;6452;41.572;23.732;2022-07-09T03:59:20;4.47;;;4.07;;
12776;SDS011;6452;41.572;23.732;2022-07-09T04:01:46;4.25;;;4.00;;
12776;SDS011;6452;41.572;23.732;2022-07-09T04:04:12;4.38;;;4.05;;
12776;SDS011;6452;41.572;23.732;2022-07-09T04:06:38;8.65;;;4.47;;
12776;SDS011;6452;41.572;23.732;2022-07-09T04:09:05;4.65;;;4.22;;
12776;SDS011;6452;41.572;23.732;2022-07-09T04:11:31;4.50;;;4.10;;
12776;SDS011;6452;41.572;23.732;2022-07-09T04:13:58;6.35;;;4.50;;
12776;SDS011;6452;41.572;23.732;2022-07-09T04:16:24;4.93;;;4.63;;
12776;SDS011;6452;41.572;23.732;2022-07-09T04:18:50;4.45;;;4.18;;
12776;SDS011;6452;41.572;23.732;2022-07-09T04:21:16;4.50;;;4.20;;
12776;SDS011;6452;41.572;23.732;2022-07-09T04:23:42;4.60;;;4.30;;
12776;SDS011;6452;41.572;23.732;2022-07-09T04:26:08;4.00;;;3.70;;
12776;SDS011;6452;41.572;23.732;2022-07-09T04:28:37;3.97;;;3.78;;
12776;SDS011;6452;41.572;23.732;2022-07-09T04:31:03;4.57;;;4.28;;
12776;SDS011;6452;41.572;23.732;2022-07-09T04:33:30;4.40;;;4.03;;
12776;SDS011;6452;41.572;23.732;2022-07-09T04:35:56;4.60;;;4.30;;
12776;SDS011;6452;41.572;23.732;2022-07-09T04:38:23;4.40;;;4.05;;
12776;SDS011;6452;41.572;23.732;2022-07-09T04:40:50;4.40;;;4.10;;
12776;SDS011;6452;41.572;23.732;2022-07-09T04:43:16;4.68;;;4.28;;
12776;SDS011;6452;41.572;23.732;2022-07-09T04:45:42;4.57;;;4.30;;
12776;SDS011;6452;41.572;23.732;2022-07-09T04:48:08;4.63;;;4.43;;
12776;SDS011;6452;41.572;23.732;2022-07-09T04:50:39;4.78;;;4.40;;
12776;SDS011;6452;41.572;23.732;2022-07-09T04:53:05;4.35;;;4.05;;
12776;SDS011;6452;41.572;23.732;2022-07-09T04:55:32;4.22;;;3.95;;
12776;SDS011;6452;41.572;23.732;2022-07-09T04:57:58;3.88;;;3.60;;
12776;SDS011;6452;41.572;23.732;2022-07-09T05:00:28;3.95;;;3.67;;
12776;SDS011;6452;41.572;23.732;2022-07-09T05:02:55;4.30;;;3.65;;
12776;SDS011;6452;41.572;23.732;2022-07-09T05:05:21;3.90;;;3.53;;
12776;SDS011;6452;41.572;23.732;2022-07-09T05:07:48;4.10;;;3.40;;
12776;SDS011;6452;41.572;23.732;2022-07-09T05:10:14;2.97;;;2.88;;
12776;SDS011;6452;41.572;23.732;2022-07-09T05:12:40;3.50;;;3.30;;
12776;SDS011;6452;41.572;23.732;2022-07-09T05:15:10;3.50;;;3.30;;
12776;SDS011;6452;41.572;23.732;2022-07-09T05:17:37;3.97;;;3.78;;
12776;SDS011;6452;41.572;23.732;2022-07-09T05:20:03;3.78;;;3.47;;
12776;SDS011;6452;41.572;23.732;2022-07-09T05:22:34;4.30;;;4.00;;
12776;SDS011;6452;41.572;23.732;2022-07-09T05:25:01;4.38;;;4.07;;
12776;SDS011;6452;41.572;23.732;2022-07-09T05:27:27;4.20;;;3.90;;
12776;SDS011;6452;41.572;23.732;2022-07-09T05:29:53;4.15;;;3.83;;
12776;SDS011;6452;41.572;23.732;2022-07-09T05:32:19;3.95;;;3.75;;
12776;SDS011;6452;41.572;23.732;2022-07-09T05:34:45;3.93;;;3.70;;
12776;SDS011;6452;41.572;23.732;2022-07-09T05:37:10;3.67;;;3.40;;
12776;SDS011;6452;41.572;23.732;2022-07-09T05:39:37;3.30;;;3.10;;
12776;SDS011;6452;41.572;23.732;2022-07-09T05:42:02;4.78;;;3.30;;
12776;SDS011;6452;41.572;23.732;2022-07-09T05:44:28;3.17;;;2.97;;
12776;SDS011;6452;41.572;23.732;2022-07-09T05:46:55;3.30;;;3.20;;
12776;SDS011;6452;41.572;23.732;2022-07-09T05:49:21;3.28;;;3.05;;
12776;SDS011;6452;41.572;23.732;2022-07-09T05:51:47;5.82;;;2.97;;
12776;SDS011;6452;41.572;23.732;2022-07-09T05:54:17;3.42;;;3.22;;
12776;SDS011;6452;41.572;23.732;2022-07-09T05:56:43;3.05;;;2.85;;
12776;SDS011;6452;41.572;23.732;2022-07-09T05:59:09;3.08;;;2.90;;
12776;SDS011;6452;41.572;23.732;2022-07-09T06:01:35;3.10;;;2.90;;
12776;SDS011;6452;41.572;23.732;2022-07-09T06:04:05;3.00;;;2.83;;
12776;SDS011;6452;41.572;23.732;2022-07-09T06:06:31;2.85;;;2.70;;
12776;SDS011;6452;41.572;23.732;2022-07-09T06:08:57;3.00;;;2.80;;
12776;SDS011;6452;41.572;23.732;2022-07-09T06:11:23;3.50;;;2.80;;
12776;SDS011;6452;41.572;23.732;2022-07-09T06:13:50;3.00;;;2.60;;
12776;SDS011;6452;41.572;23.732;2022-07-09T06:16:15;3.38;;;2.80;;
12776;SDS011;6452;41.572;23.732;2022-07-09T06:18:41;3.28;;;3.03;;
12776;SDS011;6452;41.572;23.732;2022-07-09T06:21:08;3.20;;;3.00;;
12776;SDS011;6452;41.572;23.732;2022-07-09T06:23:34;3.22;;;3.08;;
12776;SDS011;6452;41.572;23.732;2022-07-09T06:26:00;3.10;;;3.00;;
12776;SDS011;6452;41.572;23.732;2022-07-09T06:28:26;3.80;;;2.55;;
12776;SDS011;6452;41.572;23.732;2022-07-09T06:30:52;3.30;;;2.78;;
12776;SDS011;6452;41.572;23.732;2022-07-09T06:33:18;2.53;;;2.42;;
12776;SDS011;6452;41.572;23.732;2022-07-09T06:35:44;3.40;;;2.53;;
12776;SDS011;6452;41.572;23.732;2022-07-09T06:38:10;3.17;;;2.60;;
12776;SDS011;6452;41.572;23.732;2022-07-09T06:40:36;2.95;;;2.75;;
12776;SDS011;6452;41.572;23.732;2022-07-09T06:43:02;2.60;;;2.50;;
12776;SDS011;6452;41.572;23.732;2022-07-09T06:45:32;5.95;;;3.28;;
12776;SDS011;6452;41.572;23.732;2022-07-09T06:47:59;3.40;;;3.10;;
12776;SDS011;6452;41.572;23.732;2022-07-09T06:50:25;3.30;;;3.08;;
12776;SDS011;6452;41.572;23.732;2022-07-09T06:52:51;3.55;;;3.35;;
12776;SDS011;6452;41.572;23.732;2022-07-09T06:55:17;3.30;;;3.00;;
12776;SDS011;6452;41.572;23.732;2022-07-09T06:57:47;3.20;;;3.00;;
12776;SDS011;6452;41.572;23.732;2022-07-09T07:00:13;2.60;;;2.50;;
12776;SDS011;6452;41.572;23.732;2022-07-09T07:02:40;2.60;;;2.50;;
12776;SDS011;6452;41.572;23.732;2022-07-09T07:05:06;3.20;;;2.50;;
12776;SDS011;6452;41.572;23.732;2022-07-09T07:07:32;2.72;;;2.53;;
12776;SDS011;6452;41.572;23.732;2022-07-09T07:09:58;2.55;;;2.35;;
12776;SDS011;6452;41.572;23.732;2022-07-09T07:12:24;7.38;;;2.70;;
12776;SDS011;6452;41.572;23.732;2022-07-09T07:14:50;3.53;;;2.70;;
12776;SDS011;6452;41.572;23.732;2022-07-09T07:17:16;3.88;;;2.70;;
12776;SDS011;6452;41.572;23.732;2022-07-09T07:19:42;2.25;;;2.10;;
12776;SDS011;6452;41.572;23.732;2022-07-09T07:22:08;2.38;;;2.28;;
12776;SDS011;6452;41.572;23.732;2022-07-09T07:24:34;2.38;;;2.20;;
12776;SDS011;6452;41.572;23.732;2022-07-09T07:27:00;3.97;;;2.33;;
12776;SDS011;6452;41.572;23.732;2022-07-09T07:29:26;3.10;;;2.28;;
12776;SDS011;6452;41.572;23.732;2022-07-09T07:31:53;2.25;;;2.05;;
12776;SDS011;6452;41.572;23.732;2022-07-09T07:34:24;1.95;;;1.92;;
12776;SDS011;6452;41.572;23.732;2022-07-09T07:36:51;2.17;;;2.00;;
12776;SDS011;6452;41.572;23.732;2022-07-09T07:39:17;4.38;;;2.30;;
12776;SDS011;6452;41.572;23.732;2022-07-09T07:41:43;2.33;;;2.10;;
12776;SDS011;6452;41.572;23.732;2022-07-09T07:44:09;2.47;;;1.88;;
12776;SDS011;6452;41.572;23.732;2022-07-09T07:46:35;2.00;;;1.90;;
12776;SDS011;6452;41.572;23.732;2022-07-09T07:49:01;2.63;;;2.40;;
12776;SDS011;6452;41.572;23.732;2022-07-09T07:51:27;4.70;;;2.38;;
12776;SDS011;6452;41.572;23.732;2022-07-09T07:53:53;4.68;;;2.38;;
12776;SDS011;6452;41.572;23.732;2022-07-09T07:56:25;2.20;;;2.10;;
12776;SDS011;6452;41.572;23.732;2022-07-09T07:58:51;2.35;;;2.10;;
12776;SDS011;6452;41.572;23.732;2022-07-09T08:01:17;5.85;;;2.20;;
12776;SDS011;6452;41.572;23.732;2022-07-09T08:03:43;6.35;;;2.42;;
12776;SDS011;6452;41.572;23.732;2022-07-09T08:06:09;2.35;;;2.10;;
12776;SDS011;6452;41.572;23.732;2022-07-09T08:08:35;5.88;;;2.10;;
12776;SDS011;6452;41.572;23.732;2022-07-09T08:11:01;1.92;;;1.90;;
12776;SDS011;6452;41.572;23.732;2022-07-09T08:13:27;2.30;;;2.20;;
12776;SDS011;6452;41.572;23.732;2022-07-09T08:15:54;2.30;;;2.20;;
12776;SDS011;6452;41.572;23.732;2022-07-09T08:18:20;2.17;;;2.17;;
12776;SDS011;6452;41.572;23.732;2022-07-09T08:20:46;2.50;;;2.40;;
12776;SDS011;6452;41.572;23.732;2022-07-09T08:23:14;6.72;;;2.58;;
12776;SDS011;6452;41.572;23.732;2022-07-09T08:25:40;6.50;;;2.42;;
12776;SDS011;6452;41.572;23.732;2022-07-09T08:28:10;3.28;;;2.53;;
12776;SDS011;6452;41.572;23.732;2022-07-09T08:30:36;3.10;;;2.60;;
12776;SDS011;6452;41.572;23.732;2022-07-09T08:33:02;2.47;;;2.22;;
12776;SDS011;6452;41.572;23.732;2022-07-09T08:35:32;2.38;;;2.17;;
12776;SDS011;6452;41.572;23.732;2022-07-09T08:37:58;3.08;;;2.53;;
12776;SDS011;6452;41.572;23.732;2022-07-09T08:40:27;3.78;;;2.60;;
12776;SDS011;6452;41.572;23.732;2022-07-09T08:42:53;6.90;;;2.80;;
12776;SDS011;6452;41.572;23.732;2022-07-09T08:45:19;3.58;;;2.88;;
12776;SDS011;6452;41.572;23.732;2022-07-09T08:47:45;2.50;;;2.40;;
12776;SDS011;6452;41.572;23.732;2022-07-09T08:50:11;3.00;;;2.80;;
12776;SDS011;6452;41.572;23.732;2022-07-09T08:52:38;4.45;;;2.58;;
12776;SDS011;6452;41.572;23.732;2022-07-09T08:55:05;3.83;;;3.53;;
12776;SDS011;6452;41.572;23.732;2022-07-09T08:57:33;3.67;;;3.47;;
12776;SDS011;6452;41.572;23.732;2022-07-09T08:59:59;6.45;;;3.92;;
12776;SDS011;6452;41.572;23.732;2022-07-09T09:02:25;3.92;;;3.55;;
12776;SDS011;6452;41.572;23.732;2022-07-09T09:04:51;4.25;;;3.80;;
12776;SDS011;6452;41.572;23.732;2022-07-09T09:07:19;5.35;;;3.92;;
12776;SDS011;6452;41.572;23.732;2022-07-09T09:09:47;4.10;;;3.83;;
12776;SDS011;6452;41.572;23.732;2022-07-09T09:12:14;3.88;;;3.67;;
12776;SDS011;6452;41.572;23.732;2022-07-09T09:14:47;3.30;;;3.10;;
12776;SDS011;6452;41.572;23.732;2022-07-09T09:17:14;3.70;;;3.40;;
12776;SDS011;6452;41.572;23.732;2022-07-09T09:19:40;4.55;;;3.20;;
12776;SDS011;6452;41.572;23.732;2022-07-09T09:22:06;4.82;;;3.85;;
12776;SDS011;6452;41.572;23.732;2022-07-09T09:24:33;5.38;;;4.03;;
12776;SDS011;6452;41.572;23.732;2022-07-09T09:27:00;5.10;;;3.75;;
12776;SDS011;6452;41.572;23.732;2022-07-09T09:29:26;4.95;;;4.13;;
12776;SDS011;6452;41.572;23.732;2022-07-09T09:31:56;4.50;;;3.58;;
12776;SDS011;6452;41.572;23.732;2022-07-09T09:34:22;5.57;;;3.47;;
12776;SDS011;6452;41.572;23.732;2022-07-09T09:36:48;3.78;;;3.40;;
12776;SDS011;6452;41.572;23.732;2022-07-09T09:41:47;3.25;;;3.05;;
12776;SDS011;6452;41.572;23.732;2022-07-09T09:44:14;5.07;;;2.80;;
12776;SDS011;6452;41.572;23.732;2022-07-09T09:46:40;3.15;;;2.90;;
12776;SDS011;6452;41.572;23.732;2022-07-09T09:49:07;3.63;;;3.10;;
12776;SDS011;6452;41.572;23.732;2022-07-09T09:51:34;3.25;;;2.95;;
12776;SDS011;6452;41.572;23.732;2022-07-09T09:54:02;3.00;;;2.80;;
12776;SDS011;6452;41.572;23.732;2022-07-09T09:56:30;3.17;;;2.92;;
12776;SDS011;6452;41.572;23.732;2022-07-09T09:58:56;4.15;;;3.20;;
12776;SDS011;6452;41.572;23.732;2022-07-09T10:01:23;3.10;;;2.80;;
12776;SDS011;6452;41.572;23.732;2022-07-09T10:03:50;3.33;;;3.13;;
12776;SDS011;6452;41.572;23.732;2022-07-09T10:06:16;6.70;;;3.00;;
12776;SDS011;6452;41.572;23.732;2022-07-09T10:08:46;4.32;;;2.90;;
12776;SDS011;6452;41.572;23.732;2022-07-09T10:11:12;8.63;;;3.15;;
12776;SDS011;6452;41.572;23.732;2022-07-09T10:13:57;3.30;;;3.10;;
12776;SDS011;6452;41.572;23.732;2022-07-09T10:16:37;6.10;;;4.40;;
12776;SDS011;6452;41.572;23.732;2022-07-09T10:19:03;7.05;;;4.57;;
12776;SDS011;6452;41.572;23.732;2022-07-09T10:23:58;4.70;;;4.30;;
12776;SDS011;6452;41.572;23.732;2022-07-09T10:26:34;5.35;;;4.35;;
12776;SDS011;6452;41.572;23.732;2022-07-09T10:29:00;5.30;;;4.78;;
12776;SDS011;6452;41.572;23.732;2022-07-09T10:31:26;7.20;;;4.95;;
12776;SDS011;6452;41.572;23.732;2022-07-09T10:33:55;5.55;;;5.15;;
12776;SDS011;6452;41.572;23.732;2022-07-09T10:36:27;5.38;;;4.97;;
12776;SDS011;6452;41.572;23.732;2022-07-09T10:38:54;5.82;;;5.43;;
12776;SDS011;6452;41.572;23.732;2022-07-09T10:41:23;7.82;;;5.57;;
12776;SDS011;6452;41.572;23.732;2022-07-09T10:43:52;6.93;;;6.30;;
12776;SDS011;6452;41.572;23.732;2022-07-09T10:46:18;6.30;;;5.72;;
12776;SDS011;6452;41.572;23.732;2022-07-09T10:48:44;5.40;;;5.00;;
12776;SDS011;6452;41.572;23.732;2022-07-09T10:51:21;5.38;;;4.88;;
12776;SDS011;6452;41.572;23.732;2022-07-09T10:54:03;6.75;;;5.18;;
12776;SDS011;6452;41.572;23.732;2022-07-09T10:56:39;13.35;;;5.40;;
12776;SDS011;6452;41.572;23.732;2022-07-09T10:59:05;5.60;;;3.70;;
12776;SDS011;6452;41.572;23.732;2022-07-09T11:01:32;7.18;;;4.40;;
12776;SDS011;6452;41.572;23.732;2022-07-09T11:03:58;6.95;;;4.65;;
12776;SDS011;6452;41.572;23.732;2022-07-09T11:06:24;9.75;;;4.97;;
12776;SDS011;6452;41.572;23.732;2022-07-09T11:08:50;6.25;;;4.80;;
12776;SDS011;6452;41.572;23.732;2022-07-09T11:11:23;8.73;;;6.18;;
12776;SDS011;6452;41.572;23.732;2022-07-09T11:13:49;6.28;;;5.55;;
12776;SDS011;6452;41.572;23.732;2022-07-09T11:16:21;5.70;;;4.25;;
12776;SDS011;6452;41.572;23.732;2022-07-09T11:18:47;4.47;;;4.13;;
12776;SDS011;6452;41.572;23.732;2022-07-09T11:21:13;6.18;;;5.20;;
12776;SDS011;6452;41.572;23.732;2022-07-09T11:23:49;5.55;;;4.90;;
12776;SDS011;6452;41.572;23.732;2022-07-09T11:26:15;12.25;;;6.00;;
12776;SDS011;6452;41.572;23.732;2022-07-09T11:28:41;6.03;;;5.43;;
12776;SDS011;6452;41.572;23.732;2022-07-09T11:31:07;10.23;;;5.90;;
12776;SDS011;6452;41.572;23.732;2022-07-09T11:33:37;7.25;;;5.47;;
12776;SDS011;6452;41.572;23.732;2022-07-09T11:36:21;5.45;;;4.82;;
12776;SDS011;6452;41.572;23.732;2022-07-09T11:38:52;5.68;;;5.20;;
12776;SDS011;6452;41.572;23.732;2022-07-09T11:41:18;4.93;;;4.50;;
12776;SDS011;6452;41.572;23.732;2022-07-09T11:43:48;5.15;;;4.65;;
12776;SDS011;6452;41.572;23.732;2022-07-09T11:46:20;4.90;;;4.40;;
12776;SDS011;6452;41.572;23.732;2022-07-09T11:48:54;6.95;;;4.65;;
12776;SDS011;6452;41.572;23.732;2022-07-09T11:51:53;5.60;;;5.10;;
12776;SDS011;6452;41.572;23.732;2022-07-09T11:54:12;5.10;;;4.60;;
12776;SDS011;6452;41.572;23.732;2022-07-09T11:56:41;4.75;;;4.28;;
12776;SDS011;6452;41.572;23.732;2022-07-09T11:59:09;4.45;;;4.07;;
12776;SDS011;6452;41.572;23.732;2022-07-09T12:01:35;5.03;;;4.57;;
12776;SDS011;6452;41.572;23.732;2022-07-09T12:04:01;6.05;;;4.95;;
12776;SDS011;6452;41.572;23.732;2022-07-09T12:06:27;5.50;;;5.00;;
12776;SDS011;6452;41.572;23.732;2022-07-09T12:09:03;5.65;;;5.05;;
12776;SDS011;6452;41.572;23.732;2022-07-09T12:11:32;4.85;;;4.45;;
12776;SDS011;6452;41.572;23.732;2022-07-09T12:13:58;4.55;;;4.35;;
12776;SDS011;6452;41.572;23.732;2022-07-09T12:16:24;4.97;;;4.32;;
12776;SDS011;6452;41.572;23.732;2022-07-09T12:18:50;4.72;;;4.32;;
12776;SDS011;6452;41.572;23.732;2022-07-09T12:21:16;6.60;;;4.38;;
12776;SDS011;6452;41.572;23.732;2022-07-09T12:23:42;4.47;;;4.10;;
12776;SDS011;6452;41.572;23.732;2022-07-09T12:26:09;4.95;;;4.68;;
12776;SDS011;6452;41.572;23.732;2022-07-09T12:28:35;4.68;;;4.40;;
12776;SDS011;6452;41.572;23.732;2022-07-09T12:31:05;4.60;;;4.20;;
12776;SDS011;6452;41.572;23.732;2022-07-09T12:33:31;4.47;;;4.07;;
12776;SDS011;6452;41.572;23.732;2022-07-09T12:36:01;4.15;;;3.83;;
12776;SDS011;6452;41.572;23.732;2022-07-09T12:38:28;4.10;;;3.80;;
12776;SDS011;6452;41.572;23.732;2022-07-09T12:40:54;3.53;;;3.33;;
12776;SDS011;6452;41.572;23.732;2022-07-09T12:43:20;4.35;;;3.53;;
12776;SDS011;6452;41.572;23.732;2022-07-09T12:45:46;4.07;;;3.80;;
12776;SDS011;6452;41.572;23.732;2022-07-09T12:48:12;4.18;;;3.97;;
12776;SDS011;6452;41.572;23.732;2022-07-09T12:50:38;3.78;;;3.50;;
12776;SDS011;6452;41.572;23.732;2022-07-09T12:53:04;5.13;;;3.90;;
12776;SDS011;6452;41.572;23.732;2022-07-09T12:55:30;4.30;;;4.00;;
12776;SDS011;6452;41.572;23.732;2022-07-09T12:57:57;4.03;;;3.72;;
12776;SDS011;6452;41.572;23.732;2022-07-09T13:00:23;4.43;;;4.10;;
12776;SDS011;6452;41.572;23.732;2022-07-09T13:02:50;3.95;;;3.72;;
12776;SDS011;6452;41.572;23.732;2022-07-09T13:05:16;4.72;;;4.22;;
12776;SDS011;6452;41.572;23.732;2022-07-09T13:07:42;4.50;;;4.10;;
12776;SDS011;6452;41.572;23.732;2022-07-09T13:10:08;4.30;;;4.00;;
12776;SDS011;6452;41.572;23.732;2022-07-09T13:12:34;4.35;;;4.05;;
12776;SDS011;6452;41.572;23.732;2022-07-09T13:15:01;6.90;;;6.30;;
12776;SDS011;6452;41.572;23.732;2022-07-09T13:17:27;8.07;;;6.18;;
12776;SDS011;6452;41.572;23.732;2022-07-09T13:19:53;6.85;;;5.28;;
12776;SDS011;6452;41.572;23.732;2022-07-09T13:22:19;7.30;;;5.60;;
12776;SDS011;6452;41.572;23.732;2022-07-09T13:24:45;6.82;;;5.13;;
12776;SDS011;6452;41.572;23.732;2022-07-09T13:27:16;6.43;;;5.03;;
12776;SDS011;6452;41.572;23.732;2022-07-09T13:29:44;6.13;;;5.60;;
12776;SDS011;6452;41.572;23.732;2022-07-09T13:32:10;8.00;;;6.18;;
12776;SDS011;6452;41.572;23.732;2022-07-09T13:34:36;6.15;;;5.65;;
12776;SDS011;6452;41.572;23.732;2022-07-09T13:37:03;5.60;;;5.10;;
12776;SDS011;6452;41.572;23.732;2022-07-09T13:39:28;5.28;;;4.63;;
12776;SDS011;6452;41.572;23.732;2022-07-09T13:41:54;4.25;;;4.05;;
12776;SDS011;6452;41.572;23.732;2022-07-09T13:44:20;6.35;;;3.95;;
12776;SDS011;6452;41.572;23.732;2022-07-09T13:46:47;4.00;;;3.80;;
12776;SDS011;6452;41.572;23.732;2022-07-09T13:49:12;3.80;;;3.57;;
12776;SDS011;6452;41.572;23.732;2022-07-09T13:51:38;3.40;;;3.30;;
12776;SDS011;6452;41.572;23.732;2022-07-09T13:54:05;3.05;;;2.95;;
12776;SDS011;6452;41.572;23.732;2022-07-09T13:56:31;3.05;;;2.95;;
12776;SDS011;6452;41.572;23.732;2022-07-09T13:59:01;3.22;;;3.13;;
12776;SDS011;6452;41.572;23.732;2022-07-09T14:01:27;4.00;;;3.67;;
12776;SDS011;6452;41.572;23.732;2022-07-09T14:03:53;4.20;;;3.78;;
12776;SDS011;6452;41.572;23.732;2022-07-09T14:06:24;3.80;;;3.50;;
12776;SDS011;6452;41.572;23.732;2022-07-09T14:08:50;3.67;;;3.33;;
12776;SDS011;6452;41.572;23.732;2022-07-09T14:11:16;3.45;;;3.35;;
12776;SDS011;6452;41.572;23.732;2022-07-09T14:13:42;3.90;;;3.70;;
12776;SDS011;6452;41.572;23.732;2022-07-09T14:16:09;3.38;;;3.17;;
12776;SDS011;6452;41.572;23.732;2022-07-09T14:18:35;3.38;;;3.17;;
12776;SDS011;6452;41.572;23.732;2022-07-09T14:21:01;3.60;;;3.30;;
12776;SDS011;6452;41.572;23.732;2022-07-09T14:23:27;3.97;;;3.78;;
12776;SDS011;6452;41.572;23.732;2022-07-09T14:25:53;4.10;;;3.88;;
12776;SDS011;6452;41.572;23.732;2022-07-09T14:28:19;3.75;;;3.50;;
12776;SDS011;6452;41.572;23.732;2022-07-09T14:30:49;3.88;;;3.60;;
12776;SDS011;6452;41.572;23.732;2022-07-09T14:33:15;5.28;;;3.45;;
12776;SDS011;6452;41.572;23.732;2022-07-09T14:35:41;3.45;;;3.25;;
12776;SDS011;6452;41.572;23.732;2022-07-09T14:38:07;3.55;;;3.20;;
12776;SDS011;6452;41.572;23.732;2022-07-09T14:40:34;3.72;;;3.40;;
12776;SDS011;6452;41.572;23.732;2022-07-09T14:43:00;3.72;;;3.53;;
12776;SDS011;6452;41.572;23.732;2022-07-09T14:45:26;3.63;;;3.42;;
12776;SDS011;6452;41.572;23.732;2022-07-09T14:47:52;4.40;;;3.20;;
12776;SDS011;6452;41.572;23.732;2022-07-09T14:50:19;3.95;;;3.63;;